Latest Weather Observations for Eildon Fire Tower

IDV60801

Issued at 9:32 pm EDT Saturday 16 December 2017 (issued every 30 minutes, with the page automatically refreshed every 10 minutes)

About weather observations | Map of weather stations | Latest weather observations for VIC | Other Formats
Station Details ID: 088164 Name: EILDON FIRE TOWER Lat: -37.21 Lon: 145.84 Height: 637.0 m
Data from the previous 72 hours. | See also: Recent months at Eildon Fire Tower
Date/Time
EDT
Temp
°C
App
Temp
°C
Dew
Point
°C
Rel
Hum
%
Delta-T
°C
Wind Press
QNH
hPa
Press
MSL
hPa
Rain since
9am
mm
Dir  Spd
km/h
Gust
km/h
Spd
kts
Gust
kts
16/09:30pm 18.9 17.8 11.9 64 4.0 WSW 9 13 5 7 - - 0.0
16/09:00pm 19.6 16.6 12.1 62 4.3 WSW 19 20 10 11 - - 0.0
16/08:30pm 21.2 18.2 12.1 56 5.3 W 19 22 10 12 - - 0.0
16/08:00pm 23.3 21.4 11.7 48 6.7 WSW 13 15 7 8 - - 0.0
16/07:30pm 24.4 22.5 11.7 45 7.4 WSW 13 17 7 9 - - 0.0
16/07:00pm 25.3 22.6 10.4 39 8.5 WSW 15 20 8 11 - - 0.0
16/06:30pm 26.3 23.3 10.5 37 9.1 SW 17 26 9 14 - - 0.0
16/06:00pm 25.6 24.0 10.2 38 8.8 SW 9 15 5 8 - - 0.0
16/05:30pm 25.8 22.8 7.9 32 9.8 WSW 13 17 7 9 - - 0.0
16/05:00pm 26.5 23.8 7.5 30 10.4 W 11 19 6 10 - - 0.0
16/04:30pm 26.4 24.6 7.9 31 10.2 WNW 7 11 4 6 - - 0.0
16/04:00pm 26.6 23.8 7.1 29 10.6 W 11 19 6 10 - - 0.0
16/03:30pm 25.7 23.0 7.3 31 10.0 WNW 11 17 6 9 - - 0.0
16/03:00pm 27.2 24.4 8.6 31 10.4 W 13 22 7 12 - - 0.0
16/02:30pm 26.7 22.9 7.7 30 10.5 W 17 24 9 13 - - 0.0
16/02:00pm 25.7 22.1 6.8 30 10.2 WSW 15 26 8 14 - - 0.0
16/01:30pm 25.4 21.3 8.0 33 9.6 W 19 28 10 15 - - 0.0
16/01:00pm 25.7 22.2 7.3 31 10.0 WSW 15 24 8 13 - - 0.0
16/12:30pm 25.0 21.7 8.1 34 9.3 W 15 24 8 13 - - 0.0
16/12:00pm 24.9 22.7 8.0 34 9.3 WSW 9 15 5 8 - - 0.0
16/11:30am 24.2 21.8 6.9 33 9.3 W 9 15 5 8 - - 0.0
16/11:00am 23.5 21.5 6.3 33 9.1 WSW 6 11 3 6 - - 0.0
16/10:30am 23.6 23.0 8.8 39 8.2 SW 2 7 1 4 - - 0.0
16/10:00am 22.7 22.2 10.8 47 6.8 ENE 4 7 2 4 - - 0.0
16/09:30am 21.5 20.4 10.0 48 6.4 NE 6 9 3 5 - - 0.0
16/09:00am 19.5 18.9 11.8 61 4.4 NE 6 9 3 5 - - 0.0
16/08:30am 18.3 17.6 11.4 64 3.9 NNE 6 6 3 3 - - 0.0
16/08:00am 17.1 16.2 10.7 66 3.5 N 6 7 3 4 - - 0.0
16/07:30am 15.5 14.7 10.9 74 2.5 N 6 7 3 4 - - 0.0
16/07:00am 15.0 15.2 10.4 74 2.5 CALM 0 0 0 0 - - 0.0
16/06:30am 14.8 14.9 10.2 74 2.5 CALM 0 4 0 2 - - 0.0
16/06:00am 13.7 13.2 10.7 82 1.6 SW 4 7 2 4 - - 0.0
16/05:30am 14.6 13.7 10.6 77 2.2 SW 6 11 3 6 - - 0.0
16/05:00am 13.5 10.6 11.0 85 1.4 WSW 17 20 9 11 - - 0.0
16/04:30am 12.6 9.4 11.3 92 0.7 WSW 19 22 10 12 - - 0.0
16/04:00am 12.9 9.7 11.3 90 0.9 WSW 19 20 10 11 - - 0.0
16/03:30am 14.0 11.2 11.2 83 1.5 WSW 17 19 9 10 - - 0.0
16/03:00am 13.9 10.7 11.4 85 1.4 WSW 19 20 10 11 - - 0.0
16/02:30am 14.2 10.8 11.2 82 1.6 WSW 20 22 11 12 - - 0.0
16/02:00am 15.0 11.7 10.8 76 2.3 W 19 20 10 11 - - 0.0
16/01:30am 15.7 12.3 11.1 74 2.5 W 20 24 11 13 - - 0.0
16/01:00am 16.5 14.3 10.8 69 3.1 W 13 17 7 9 - - 0.0
16/12:30am 16.9 14.6 10.3 65 3.6 W 13 15 7 8 - - 0.0
16/12:00am 18.3 15.1 8.3 52 5.3 W 15 17 8 9 - - 0.0
 
Date/Time
EDT
Temp
°C
App
Temp
°C
Dew
Point
°C
Rel
Hum
%
Delta-T
°C
Wind Press
QNH
hPa
Press
MSL
hPa
Rain since
9am
mm
Dir  Spd
km/h
Gust
km/h
Spd
kts
Gust
kts
15/11:30pm 19.7 15.8 5.4 39 7.3 W 15 19 8 10 - - 0.0
15/11:00pm 21.9 17.7 3.6 30 9.1 WNW 15 20 8 11 - - 0.0
15/10:30pm 22.2 18.0 3.8 30 9.2 NNW 15 20 8 11 - - 0.0
15/10:00pm 22.6 18.0 3.7 29 9.5 NNW 17 20 9 11 - - 0.0
15/09:30pm 22.8 18.5 3.4 28 9.7 NNW 15 22 8 12 - - 0.0
15/09:00pm 22.9 18.6 3.4 28 9.7 NNW 15 24 8 13 - - 0.0
15/08:30pm 23.5 19.2 3.4 27 10.1 NNW 15 19 8 10 - - 0.0
15/08:00pm 24.1 19.8 3.4 26 10.4 NNW 15 24 8 13 - - 0.0
15/07:30pm 25.0 21.5 3.6 25 10.9 NNW 11 15 6 8 - - 0.0
15/07:00pm 25.4 20.6 2.8 23 11.3 WNW 17 26 9 14 - - 0.0
15/06:30pm 25.4 20.5 2.2 22 11.5 NW 17 28 9 15 - - 0.0
15/06:00pm 26.2 22.3 5.2 26 11.0 WNW 15 28 8 15 - - 0.0
15/05:30pm 26.5 24.0 6.5 28 10.8 NNW 9 24 5 13 - - 0.0
15/05:00pm 26.1 23.0 5.7 27 10.8 NW 11 20 6 11 - - 0.0
15/04:30pm 26.5 23.6 6.5 28 10.8 NW 11 24 6 13 - - 0.0
15/04:00pm 25.6 20.9 5.2 27 10.7 WNW 19 30 10 16 - - 0.0
15/03:30pm 25.3 20.5 5.5 28 10.4 WNW 20 33 11 18 - - 0.0
15/03:00pm 26.3 23.0 6.4 28 10.7 WNW 13 22 7 12 - - 0.0
15/02:30pm 25.9 22.6 6.5 29 10.4 NW 13 26 7 14 - - 0.0
15/02:00pm 26.5 24.6 7.5 30 10.4 NNE 7 20 4 11 - - 0.0
15/01:30pm 24.9 23.4 9.2 37 8.8 NW 7 17 4 9 - - 0.0
15/01:00pm 23.5 22.2 9.9 42 7.7 W 7 15 4 8 - - 0.0
15/12:30pm 23.0 20.2 8.7 40 7.9 W 13 22 7 12 - - 0.0
15/12:00pm 22.1 18.4 7.9 40 7.7 WSW 17 30 9 16 - - 0.0
15/11:30am 21.5 18.4 8.7 44 7.0 WSW 15 22 8 12 - - 0.0
15/11:00am 20.6 19.6 10.4 52 5.7 W 6 11 3 6 - - 0.0
15/10:30am 20.2 19.8 11.1 56 5.1 WNW 4 6 2 3 - - 0.0
15/10:00am 19.0 18.5 10.8 59 4.6 ESE 4 6 2 3 - - 0.0
15/09:30am 18.7 18.5 10.5 59 4.6 NE 2 6 1 3 - - 0.0
15/09:00am 18.6 17.9 10.2 58 4.6 ENE 4 9 2 5 - - 0.0
15/08:30am 16.7 15.3 8.7 59 4.2 ENE 6 9 3 5 - - 0.0
15/08:00am 16.3 14.8 8.5 60 4.1 E 6 9 3 5 - - 0.0
15/07:30am 14.6 12.3 7.4 62 3.7 ENE 9 13 5 7 - - 0.0
15/07:00am 14.3 11.7 7.6 64 3.4 ESE 11 17 6 9 - - 0.0
15/06:30am 12.8 11.0 8.1 73 2.4 ESE 7 11 4 6 - - 0.0
15/06:00am 11.7 9.2 8.0 78 1.9 SE 11 17 6 9 - - 0.0
15/05:30am 11.5 9.0 8.4 81 1.6 ESE 11 17 6 9 - - 0.0
15/05:00am 11.8 9.3 8.1 78 1.9 ESE 11 15 6 8 - - 0.0
15/04:30am 11.9 9.5 8.7 81 1.6 SE 11 17 6 9 - - 0.0
15/04:00am 11.9 11.1 9.5 85 1.3 W 4 6 2 3 - - 0.0
15/03:30am 12.0 11.4 10.4 90 0.9 W 4 6 2 3 - - 0.0
15/03:00am 11.9 10.8 10.1 89 1.0 WSW 6 7 3 4 - - 0.0
15/02:30am 12.1 10.9 10.2 88 1.0 WSW 7 11 4 6 - - 0.0
15/02:00am 12.4 10.1 10.3 87 1.1 W 13 15 7 8 - - 0.0
15/01:30am 12.9 10.6 10.3 84 1.4 WSW 13 15 7 8 - - 0.0
15/01:00am 13.4 12.1 10.0 80 1.8 WSW 7 11 4 6 - - 0.0
15/12:30am 14.5 13.7 10.9 79 2.0 ESE 6 11 3 6 - - 0.0
15/12:00am 14.3 13.0 9.9 75 2.4 WSW 7 11 4 6 - - 0.0
 
Date/Time
EDT
Temp
°C
App
Temp
°C
Dew
Point
°C
Rel
Hum
%
Delta-T
°C
Wind Press
QNH
hPa
Press
MSL
hPa
Rain since
9am
mm
Dir  Spd
km/h
Gust
km/h
Spd
kts
Gust
kts
14/11:30pm 14.7 12.3 9.9 73 2.6 W 13 15 7 8 - - 0.0
14/11:00pm 15.0 12.4 10.6 75 2.4 WSW 15 19 8 10 - - 0.0
14/10:30pm 15.6 13.1 11.0 74 2.5 WSW 15 19 8 10 - - 0.0
14/10:00pm 16.1 12.9 11.3 73 2.7 WSW 19 24 10 13 - - 0.0
14/09:30pm 16.7 11.4 11.4 71 3.0 WSW 30 39 16 21 - - 0.0
14/09:00pm 17.3 11.8 12.6 74 2.7 WSW 33 41 18 22 - - 0.0
14/08:30pm 18.2 13.9 12.2 68 3.4 WSW 26 37 14 20 - - 0.0
14/08:00pm 19.1 14.5 12.4 65 3.9 WSW 28 33 15 18 - - 0.0
14/07:30pm 19.6 15.5 12.6 64 4.1 WSW 26 37 14 20 - - 0.0
14/07:00pm 20.2 15.6 13.4 65 4.0 WSW 30 39 16 21 - - 0.0
14/06:30pm 21.5 17.8 13.9 62 4.5 WSW 26 35 14 19 - - 0.0
14/06:00pm 21.7 18.6 14.4 63 4.4 WSW 24 33 13 18 - - 0.0
14/05:30pm 23.2 20.4 14.2 57 5.4 WSW 22 32 12 17 - - 0.0
14/05:00pm 23.7 21.3 14.4 56 5.6 WSW 20 32 11 17 - - 0.0
14/04:30pm 24.2 22.0 14.9 56 5.7 WSW 20 28 11 15 - - 0.0
14/04:00pm 24.2 22.2 14.9 56 5.7 WSW 19 32 10 17 - - 0.0
14/03:30pm 24.6 22.3 14.7 54 6.1 WSW 20 32 11 17 - - 0.0
14/03:00pm 25.0 21.8 14.2 51 6.6 WSW 24 37 13 20 - - 0.0
14/02:30pm 24.7 21.5 13.0 48 7.0 WSW 22 32 12 17 - - 0.0
14/02:00pm 25.4 22.7 11.6 42 8.1 W 17 22 9 12 - - 0.0
14/01:30pm 24.7 22.2 9.8 39 8.4 WSW 13 20 7 11 - - 0.0
14/01:00pm 23.9 22.6 9.9 41 7.9 W 7 11 4 6 - - 0.0
14/12:30pm 24.7 23.1 10.2 40 8.2 WSW 9 13 5 7 - - 0.0
14/12:00pm 23.3 21.0 9.0 40 7.9 WSW 11 17 6 9 - - 0.0
14/11:30am 22.7 21.7 10.2 45 7.0 NNW 6 7 3 4 - - 0.0
14/11:00am 20.3 18.2 9.8 51 5.8 W 11 15 6 8 - - 0.0
14/10:30am 19.9 15.6 9.5 51 5.7 WSW 22 30 12 16 - - 0.0
14/10:00am 21.6 19.8 9.5 46 6.7 NNW 9 22 5 12 - - 0.0
14/09:30am 21.6 16.7 6.7 38 7.8 W 22 33 12 18 - - 0.0
14/09:00am 20.9 17.4 7.2 41 7.2 WSW 15 22 8 12 - - 0.0
14/08:30am 21.9 18.6 6.2 36 8.2 N 13 17 7 9 - - 0.0
14/08:00am 22.5 20.1 5.4 33 8.8 NE 7 11 4 6 - - 0.0
14/07:30am 22.0 18.2 5.8 35 8.4 NNE 15 19 8 10 - - 0.0
14/07:00am 21.8 18.3 5.3 34 8.5 NE 13 17 7 9 - - 0.0
14/06:30am 22.7 18.6 4.2 30 9.4 ENE 15 17 8 9 - - 0.0
14/06:00am 22.9 18.3 3.9 29 9.6 ESE 17 22 9 12 - - 0.0
14/05:30am 22.7 18.9 3.8 29 9.5 ESE 13 17 7 9 - - 0.0
14/05:00am 23.4 20.3 3.4 27 10.0 E 9 13 5 7 - - 0.0
14/04:30am 23.1 19.6 3.6 28 9.8 SE 11 17 6 9 - - 0.0
14/04:00am 21.6 17.2 4.7 33 8.6 WSW 17 24 9 13 - - 0.0
14/03:30am 22.2 19.3 4.7 32 8.9 WSW 9 13 5 7 - - 0.0
14/03:00am 23.1 21.3 3.6 28 9.8 SSW 2 6 1 3 - - 0.0
14/02:30am 22.6 18.9 4.2 30 9.3 WSW 13 17 7 9 - - 0.0
14/02:00am 23.2 18.7 4.2 29 9.6 WSW 17 22 9 12 - - 0.0
14/01:30am 24.8 20.4 2.9 24 11.0 WSW 15 17 8 9 - - 0.0
14/01:00am 25.3 18.8 2.7 23 11.3 SW 26 37 14 20 - - 0.0
14/12:30am 26.0 20.5 2.0 21 11.9 W 20 32 11 17 - - 0.0
14/12:00am 26.1 21.6 2.1 21 11.9 N 15 22 8 12 - - 0.0
 
Date/Time
EDT
Temp
°C
App
Temp
°C
Dew
Point
°C
Rel
Hum
%
Delta-T
°C
Wind Press
QNH
hPa
Press
MSL
hPa
Rain since
9am
mm
Dir  Spd
km/h
Gust
km/h
Spd
kts
Gust
kts
13/11:30pm 25.9 21.5 2.6 22 11.7 NNE 15 20 8 11 - - 0.0
13/11:00pm 25.9 21.1 2.6 22 11.7 NNE 17 20 9 11 - - 0.0
13/10:30pm 25.7 21.2 2.4 22 11.6 NE 15 20 8 11 - - 0.0
13/10:00pm 26.3 21.8 2.3 21 12.0 NE 15 20 8 11 - - 0.0

Other Formats:

Comma delimited format used in spreadsheet applications
http://www.bom.gov.au/fwo/IDV60801/IDV60801.94881.axf

JavaScript Object Notation format (JSON) in row-major order
http://www.bom.gov.au/fwo/IDV60801/IDV60801.94881.json